createdAt,value
2022-11-03T00:00:34.135Z,97475.19
2022-11-03T00:03:00.669Z,97485.25
2022-11-03T00:05:45.994Z,97481.41
2022-11-03T00:10:43.572Z,97475.84
2022-11-03T00:13:09.970Z,97473.41
2022-11-03T00:15:36.272Z,97467.88
2022-11-03T00:18:03.687Z,97477.78
2022-11-03T00:20:30.030Z,97467.34
2022-11-03T00:22:56.495Z,97467.56
2022-11-03T00:25:22.839Z,97461.63
2022-11-03T00:27:56.926Z,97460.75
2022-11-03T00:30:25.451Z,97468.06
2022-11-03T00:32:51.786Z,97465.53
2022-11-03T00:35:18.155Z,97464.88
2022-11-03T00:37:49.666Z,97452.88
2022-11-03T00:40:16.117Z,97461.41
2022-11-03T00:42:42.518Z,97453.63
2022-11-03T00:45:09.205Z,97454.38
2022-11-03T00:47:55.527Z,97456.47
2022-11-03T00:50:21.881Z,97453.19
2022-11-03T00:52:48.186Z,97449.41
2022-11-03T00:55:14.586Z,97451.31
2022-11-03T00:57:40.921Z,97453.97
2022-11-03T01:00:07.563Z,97443.31
2022-11-03T01:02:42.991Z,97442.06
2022-11-03T01:05:27.994Z,97441.59
2022-11-03T01:14:44.623Z,97420.13
2022-11-03T01:17:18.965Z,97414.69
2022-11-03T01:19:45.601Z,97418.44
2022-11-03T01:22:12.664Z,97411.78
2022-11-03T01:24:41.375Z,97410.34
2022-11-03T01:27:15.100Z,97406.50
2022-11-03T01:29:41.779Z,97410.78
2022-11-03T01:32:08.792Z,97403.00
2022-11-03T01:34:36.212Z,97398.41
2022-11-03T01:37:03.046Z,97394.06
2022-11-03T01:39:30.385Z,97391.00
2022-11-03T01:41:56.849Z,97398.13
2022-11-03T01:44:23.139Z,97399.63
2022-11-03T01:47:11.502Z,97383.69
2022-11-03T01:49:46.776Z,97371.97
2022-11-03T01:52:23.863Z,97365.22
2022-11-03T01:54:53.840Z,97365.53
2022-11-03T01:57:24.814Z,97368.09
2022-11-03T01:59:51.829Z,97362.66
2022-11-03T02:02:18.367Z,97363.50
2022-11-03T02:04:45.822Z,97357.06
2022-11-03T02:07:22.302Z,97360.91
2022-11-03T02:09:48.610Z,97357.03
2022-11-03T02:12:16.418Z,97350.34
2022-11-03T02:14:44.200Z,97352.72
2022-11-03T02:17:12.926Z,97349.56
2022-11-03T02:19:41.379Z,97341.78
2022-11-03T02:22:36.989Z,97333.41
2022-11-03T02:25:12.401Z,97327.72
2022-11-03T02:27:42.567Z,97330.94
2022-11-03T02:30:09.424Z,97327.44
2022-11-03T02:32:55.997Z,97327.81
2022-11-03T02:35:26.429Z,97326.00
2022-11-03T02:37:56.444Z,97318.41
2022-11-03T02:40:29.156Z,97318.81
2022-11-03T02:42:57.631Z,97316.28
2022-11-03T02:45:25.436Z,97322.16
2022-11-03T02:47:58.619Z,97314.69
2022-11-03T02:50:29.024Z,97328.25
2022-11-03T02:52:55.772Z,97319.16
2022-11-03T02:55:38.724Z,97315.06
2022-11-03T02:58:07.994Z,97306.47
2022-11-03T03:00:39.000Z,97308.53
2022-11-03T03:03:08.577Z,97302.19
2022-11-03T03:05:36.410Z,97298.06
2022-11-03T03:08:05.553Z,97303.75
2022-11-03T03:10:35.215Z,97308.44
2022-11-03T03:13:02.614Z,97302.81
2022-11-03T03:15:47.601Z,97302.41
2022-11-03T03:18:34.498Z,97302.31
2022-11-03T03:21:11.323Z,97307.78
2022-11-03T03:23:40.151Z,97298.72
2022-11-03T03:26:13.190Z,97295.56
2022-11-03T03:28:45.748Z,97296.41
2022-11-03T03:31:14.392Z,97293.41
2022-11-03T03:33:43.533Z,97295.47
2022-11-03T03:36:17.877Z,97290.28
2022-11-03T03:38:46.380Z,97287.53
2022-11-03T03:41:22.014Z,97278.75
2022-11-03T03:43:52.524Z,97277.06
2022-11-03T03:46:20.830Z,97276.72
2022-11-03T03:48:55.179Z,97273.91
2022-11-03T03:51:24.095Z,97281.22
2022-11-03T03:53:52.430Z,97279.78
2022-11-03T03:56:21.404Z,97263.84
2022-11-03T03:58:47.713Z,97265.16
2022-11-03T04:01:14.230Z,97264.31
2022-11-03T04:03:40.805Z,97260.66
2022-11-03T04:06:09.338Z,97251.25
2022-11-03T04:08:35.793Z,97261.94
2022-11-03T04:11:20.887Z,97266.13
2022-11-03T04:14:05.919Z,97258.78
2022-11-03T04:16:50.942Z,97263.94
2022-11-03T04:19:36.201Z,97252.50
2022-11-03T04:22:17.637Z,97251.22
2022-11-03T04:24:44.990Z,97247.09
2022-11-03T04:27:32.095Z,97245.06
2022-11-03T04:30:19.522Z,97239.56
2022-11-03T04:32:49.826Z,97231.66
2022-11-03T04:35:16.927Z,97234.19
2022-11-03T04:37:47.344Z,97231.47
2022-11-03T04:40:19.074Z,97221.47
2022-11-03T04:42:46.277Z,97217.97
2022-11-03T04:45:22.944Z,97214.91
2022-11-03T04:47:49.353Z,97211.34
2022-11-03T04:50:18.258Z,97217.59
2022-11-03T04:52:44.769Z,97208.50
2022-11-03T04:55:14.576Z,97210.59
2022-11-03T04:57:43.486Z,97200.16
2022-11-03T05:00:14.177Z,97203.00
2022-11-03T05:02:40.933Z,97199.97
2022-11-03T05:05:17.635Z,97195.59
2022-11-03T05:07:46.023Z,97191.50
2022-11-03T05:10:16.211Z,97185.34
2022-11-03T05:12:42.672Z,97189.22
2022-11-03T05:15:22.896Z,97188.25
2022-11-03T05:17:49.309Z,97181.31
2022-11-03T05:20:35.737Z,97186.72
2022-11-03T05:23:03.487Z,97178.38
2022-11-03T05:25:40.409Z,97179.84
2022-11-03T05:28:14.351Z,97166.19
2022-11-03T05:30:40.754Z,97171.97
2022-11-03T05:33:21.182Z,97167.25
2022-11-03T05:35:47.671Z,97161.09
2022-11-03T05:38:25.639Z,97153.31
2022-11-03T05:40:54.080Z,97149.06
2022-11-03T05:43:21.079Z,97150.72
2022-11-03T05:45:50.448Z,97149.19
2022-11-03T05:48:21.690Z,97145.66
2022-11-03T05:50:48.072Z,97140.78
2022-11-03T05:53:27.216Z,97148.34
2022-11-03T05:55:54.472Z,97151.16
2022-11-03T05:58:20.798Z,97140.78
2022-11-03T06:00:48.833Z,97142.47
2022-11-03T06:03:21.542Z,97142.06
2022-11-03T06:05:47.949Z,97149.94
2022-11-03T06:08:22.016Z,97132.69
2022-11-03T06:10:56.587Z,97143.03
2022-11-03T06:13:26.447Z,97144.16
2022-11-03T06:15:56.560Z,97133.53
2022-11-03T06:18:25.211Z,97141.25
2022-11-03T06:20:53.247Z,97127.81
2022-11-03T06:23:20.814Z,97126.41
2022-11-03T06:25:48.223Z,97117.47
2022-11-03T06:28:20.501Z,97118.66
2022-11-03T06:30:47.119Z,97112.53
2022-11-03T06:33:16.024Z,97103.53
2022-11-03T06:35:43.510Z,97105.44
2022-11-03T06:38:15.081Z,97097.75
2022-11-03T06:40:41.415Z,97097.28
2022-11-03T06:43:16.588Z,97103.75
2022-11-03T06:45:48.997Z,97106.38
2022-11-03T06:48:20.120Z,97103.31
2022-11-03T06:50:47.595Z,97101.63
2022-11-03T06:53:19.351Z,97105.63
2022-11-03T06:55:46.970Z,97112.59
2022-11-03T06:58:19.431Z,97106.81
2022-11-03T07:00:50.896Z,97110.59
2022-11-03T07:03:21.402Z,97109.88
2022-11-03T07:05:47.786Z,97113.16
2022-11-03T07:08:26.757Z,97108.19
2022-11-03T07:11:02.791Z,97113.09
2022-11-03T07:13:31.031Z,97112.09
2022-11-03T07:15:57.390Z,97111.13
2022-11-03T07:18:39.546Z,97100.91
2022-11-03T07:21:16.636Z,97096.09
2022-11-03T07:23:46.258Z,97104.34
2022-11-03T07:26:13.764Z,97092.91
2022-11-03T07:28:40.206Z,97094.09
2022-11-03T07:31:16.439Z,97091.84
2022-11-03T07:33:43.914Z,97083.94
2022-11-03T07:36:16.358Z,97085.75
2022-11-03T07:38:44.501Z,97076.56
2022-11-03T07:41:15.864Z,97085.22
2022-11-03T07:43:45.293Z,97078.50
2022-11-03T07:46:16.723Z,97077.38
2022-11-03T07:48:45.381Z,97069.72
2022-11-03T07:51:23.409Z,97062.31
2022-11-03T07:53:55.250Z,97057.31
2022-11-03T07:56:23.934Z,97057.03
2022-11-03T07:59:13.831Z,97064.06
2022-11-03T08:01:42.029Z,97059.75
2022-11-03T08:04:12.834Z,97047.63
2022-11-03T08:06:39.154Z,97040.25
2022-11-03T08:09:06.010Z,97023.59
2022-11-03T08:11:32.382Z,97016.47
2022-11-03T08:13:58.867Z,97017.69
2022-11-03T08:16:25.328Z,97009.03
2022-11-03T08:18:51.660Z,97005.13
2022-11-03T08:21:17.982Z,96989.94
2022-11-03T08:23:47.278Z,96987.50
2022-11-03T08:26:15.562Z,96972.94
2022-11-03T08:28:41.969Z,96978.56
2022-11-03T08:31:12.690Z,96971.91
2022-11-03T08:33:39.983Z,96957.09
2022-11-03T08:36:06.518Z,96955.28
2022-11-03T08:38:32.827Z,96945.16
2022-11-03T08:40:59.158Z,96954.31
2022-11-03T08:43:26.499Z,96939.19
2022-11-03T08:45:53.941Z,96932.91
2022-11-03T08:48:21.081Z,96924.03
2022-11-03T08:50:48.439Z,96923.69
2022-11-03T08:53:14.777Z,96920.72
2022-11-03T08:55:41.119Z,96915.66
2022-11-03T08:58:07.684Z,96906.44
2022-11-03T09:00:40.571Z,96899.78
2022-11-03T09:03:07.726Z,96888.91
2022-11-03T09:05:34.174Z,96888.84
2022-11-03T09:10:46.903Z,96877.09
2022-11-03T09:13:13.371Z,96883.41
2022-11-03T09:15:39.717Z,96889.25
2022-11-03T09:18:06.497Z,96884.47
2022-11-03T09:20:33.076Z,96887.38
2022-11-03T09:22:59.490Z,96876.59
2022-11-03T09:25:25.830Z,96869.88
2022-11-03T09:27:52.205Z,96864.97
2022-11-03T09:30:18.527Z,96872.38
2022-11-03T09:32:46.228Z,96852.88
2022-11-03T09:35:14.562Z,96849.41
2022-11-03T09:37:41.626Z,96840.41
2022-11-03T09:40:09.899Z,96836.00
2022-11-03T09:42:36.928Z,96830.38
2022-11-03T09:45:04.775Z,96839.94
2022-11-03T09:47:33.196Z,96836.75
2022-11-03T09:50:00.111Z,96829.81
2022-11-03T09:52:26.472Z,96822.09
2022-11-03T09:54:57.116Z,96825.09
2022-11-03T09:57:23.758Z,96820.06
2022-11-03T09:59:50.804Z,96815.75
2022-11-03T10:02:17.526Z,96807.00
2022-11-03T10:04:43.917Z,96803.19
2022-11-03T10:07:11.713Z,96789.81
2022-11-03T10:09:39.320Z,96787.66
2022-11-03T10:12:07.877Z,96771.91
2022-11-03T10:14:34.191Z,96778.53
2022-11-03T10:17:00.663Z,96769.41
2022-11-03T10:19:27.235Z,96764.00
2022-11-03T10:21:53.545Z,96755.16
2022-11-03T10:24:20.223Z,96760.78
2022-11-03T10:26:50.346Z,96764.72
2022-11-03T10:29:37.347Z,96751.47
2022-11-03T10:32:26.186Z,96755.84
2022-11-03T10:34:52.557Z,96750.13
2022-11-03T10:37:22.743Z,96755.44
2022-11-03T10:39:52.898Z,96751.59
2022-11-03T10:42:19.858Z,96757.47
2022-11-03T10:44:46.451Z,96735.16
2022-11-03T10:47:31.640Z,96741.00
2022-11-03T10:49:58.265Z,96735.63
2022-11-03T10:52:26.333Z,96728.25
2022-11-03T10:54:54.188Z,96722.22
2022-11-03T10:57:21.901Z,96716.09
2022-11-03T10:59:49.737Z,96719.69
2022-11-03T11:02:22.546Z,96714.84
2022-11-03T11:04:49.503Z,96704.47
2022-11-03T11:07:26.865Z,96695.28
2022-11-03T11:09:53.912Z,96692.94
2022-11-03T11:12:25.728Z,96700.25
2022-11-03T11:14:53.362Z,96690.03
2022-11-03T11:17:37.911Z,96682.75
2022-11-03T11:20:22.075Z,96689.28
2022-11-03T11:22:49.422Z,96687.66
2022-11-03T11:25:17.937Z,96693.09
2022-11-03T11:27:44.226Z,96681.34
2022-11-03T11:30:19.716Z,96685.22
2022-11-03T11:32:46.036Z,96678.91
2022-11-03T11:35:18.024Z,96677.44
2022-11-03T11:37:44.350Z,96681.13
2022-11-03T11:40:13.907Z,96674.78
2022-11-03T11:42:58.869Z,96654.25
2022-11-03T11:45:44.232Z,96654.69
2022-11-03T11:48:19.065Z,96642.69
2022-11-03T11:50:45.952Z,96635.16
2022-11-03T11:53:19.981Z,96627.06
2022-11-03T11:55:46.295Z,96627.06
2022-11-03T11:58:15.603Z,96631.50
2022-11-03T12:00:51.050Z,96618.91
2022-11-03T12:03:19.156Z,96613.63
2022-11-03T12:05:49.058Z,96600.97
2022-11-03T12:08:19.111Z,96605.47
2022-11-03T12:10:51.988Z,96608.13
2022-11-03T12:13:41.277Z,96597.75
2022-11-03T12:16:07.830Z,96584.34
2022-11-03T12:18:46.109Z,96589.63
2022-11-03T12:21:34.584Z,96583.13
2022-11-03T12:24:00.895Z,96582.28
2022-11-03T12:26:27.187Z,96576.00
2022-11-03T12:28:53.509Z,96575.00
2022-11-03T12:31:19.979Z,96561.16
2022-11-03T12:33:46.550Z,96564.81
2022-11-03T12:36:12.949Z,96566.66
2022-11-03T12:38:39.426Z,96561.59
2022-11-03T12:41:25.237Z,96565.66
2022-11-03T12:43:53.218Z,96554.44
2022-11-03T12:46:20.292Z,96560.16
2022-11-03T12:48:48.100Z,96551.81
2022-11-03T12:51:15.480Z,96551.38
2022-11-03T12:53:42.184Z,96548.56
2022-11-03T12:56:09.199Z,96546.53
2022-11-03T12:58:35.635Z,96549.78
2022-11-03T13:01:02.400Z,96538.41
2022-11-03T13:03:29.109Z,96531.69
2022-11-03T13:05:55.953Z,96523.16
2022-11-03T13:08:22.317Z,96516.47
2022-11-03T13:10:48.637Z,96505.44
2022-11-03T13:13:15.004Z,96505.47
2022-11-03T13:15:41.336Z,96509.34
2022-11-03T13:18:13.455Z,96507.91
2022-11-03T13:20:41.053Z,96508.56
2022-11-03T13:23:07.823Z,96500.00
2022-11-03T13:25:34.518Z,96498.78
2022-11-03T13:28:03.085Z,96500.19
2022-11-03T13:30:29.943Z,96487.63
2022-11-03T13:32:56.329Z,96473.78
2022-11-03T13:35:22.903Z,96465.84
2022-11-03T13:37:49.839Z,96459.53
2022-11-03T13:40:35.810Z,96452.25
2022-11-03T13:43:02.634Z,96454.31
2022-11-03T13:45:29.036Z,96456.75
2022-11-03T13:49:04.046Z,96456.97
2022-11-03T13:50:41.811Z,96442.13
2022-11-03T13:55:57.528Z,96442.53
2022-11-03T14:01:13.791Z,96444.56
2022-11-03T14:06:26.536Z,96423.03
2022-11-03T14:08:52.926Z,96425.88
2022-11-03T14:11:37.833Z,96414.13
2022-11-03T14:14:04.197Z,96410.84
2022-11-03T14:16:30.567Z,96405.59
2022-11-03T14:18:56.900Z,96411.06
2022-11-03T14:21:23.206Z,96403.97
2022-11-03T14:23:49.618Z,96397.06
2022-11-03T14:26:32.905Z,96390.13
2022-11-03T14:29:02.465Z,96390.75
2022-11-03T14:31:28.871Z,96387.72
2022-11-03T14:33:55.249Z,96382.66
2022-11-03T14:36:21.620Z,96378.16
2022-11-03T14:38:50.112Z,96382.03
2022-11-03T14:41:36.644Z,96373.50
2022-11-03T14:44:03.866Z,96377.56
2022-11-03T14:46:30.466Z,96378.19
2022-11-03T14:48:56.810Z,96383.84
2022-11-03T14:51:23.142Z,96389.69
2022-11-03T14:53:49.616Z,96391.31
2022-11-03T14:56:15.976Z,96384.81
2022-11-03T14:58:42.628Z,96386.03
2022-11-03T15:01:10.110Z,96381.34
2022-11-03T15:03:36.535Z,96375.47
2022-11-03T15:06:02.855Z,96366.34
2022-11-03T15:08:32.157Z,96364.50
2022-11-03T15:10:58.611Z,96350.31
2022-11-03T15:13:24.926Z,96335.72
2022-11-03T15:15:51.351Z,96339.34
2022-11-03T15:18:18.115Z,96336.13
2022-11-03T15:20:45.985Z,96336.47
2022-11-03T15:25:59.509Z,96320.16
2022-11-03T15:28:26.077Z,96317.53
2022-11-03T15:30:52.498Z,96315.09
2022-11-03T15:33:21.074Z,96309.63
2022-11-03T15:35:47.484Z,96305.91
2022-11-03T15:38:13.939Z,96302.00
2022-11-03T15:40:40.278Z,96293.34
2022-11-03T15:43:08.045Z,96284.41
2022-11-03T15:45:34.633Z,96288.81
2022-11-03T15:48:01.707Z,96286.53
2022-11-03T15:50:28.150Z,96282.41
2022-11-03T15:52:54.561Z,96282.94
2022-11-03T15:55:21.810Z,96278.84
2022-11-03T15:57:48.718Z,96270.34
2022-11-03T16:00:15.229Z,96258.94
2022-11-03T16:02:42.582Z,96260.78
2022-11-03T16:05:09.480Z,96254.47
2022-11-03T16:07:35.846Z,96246.75
2022-11-03T16:10:02.287Z,96235.38
2022-11-03T16:12:30.049Z,96232.56
2022-11-03T16:14:56.634Z,96226.47
2022-11-03T16:17:23.154Z,96223.97
2022-11-03T16:19:50.085Z,96216.69
2022-11-03T16:22:16.674Z,96218.50
2022-11-03T16:24:44.374Z,96225.56
2022-11-03T16:27:10.701Z,96229.28
2022-11-03T16:29:37.028Z,96227.47
2022-11-03T16:32:03.462Z,96220.25
2022-11-03T16:34:29.812Z,96213.41
2022-11-03T16:36:56.805Z,96201.59
2022-11-03T16:39:23.955Z,96197.22
2022-11-03T16:41:54.706Z,96197.50
2022-11-03T16:44:21.560Z,96184.00
2022-11-03T16:46:47.983Z,96188.50
2022-11-03T16:49:14.476Z,96185.22
2022-11-03T16:51:40.835Z,96180.50
2022-11-03T16:54:07.469Z,96179.53
2022-11-03T16:56:34.079Z,96176.13
2022-11-03T16:59:00.439Z,96173.66
2022-11-03T17:01:27.454Z,96173.34
2022-11-03T17:03:54.031Z,96168.69
2022-11-03T17:06:20.517Z,96175.97
2022-11-03T17:08:52.724Z,96170.41
2022-11-03T17:11:38.237Z,96168.16
2022-11-03T17:14:06.143Z,96168.91
2022-11-03T17:16:32.684Z,96162.78
2022-11-03T17:18:59.143Z,96160.63
2022-11-03T17:21:26.088Z,96153.53
2022-11-03T17:23:52.541Z,96150.00
2022-11-03T17:26:24.176Z,96146.34
2022-11-03T17:28:50.691Z,96140.94
2022-11-03T17:31:17.273Z,96130.38
2022-11-03T17:33:43.695Z,96128.59
2022-11-03T17:36:10.229Z,96117.41
2022-11-03T17:38:38.531Z,96119.88
2022-11-03T17:41:05.029Z,96123.47
2022-11-03T17:43:31.685Z,96125.38
2022-11-03T17:45:58.104Z,96121.75
2022-11-03T17:48:26.467Z,96121.75
2022-11-03T17:50:54.439Z,96104.38
2022-11-03T17:53:22.275Z,96108.03
2022-11-03T17:56:08.818Z,96108.81
2022-11-03T17:58:43.209Z,96097.72
2022-11-03T18:01:13.545Z,96097.66
2022-11-03T18:03:40.576Z,96090.19
2022-11-03T18:06:14.214Z,96078.66
2022-11-03T18:08:41.614Z,96081.00
2022-11-03T18:11:09.234Z,96060.28
2022-11-03T18:13:35.847Z,96068.28
2022-11-03T18:16:02.243Z,96052.56
2022-11-03T18:18:34.573Z,96052.44
2022-11-03T18:21:01.155Z,96042.00
2022-11-03T18:23:30.849Z,96034.72
2022-11-03T18:25:58.185Z,96039.19
2022-11-03T18:28:24.493Z,96032.19
2022-11-03T18:30:52.367Z,96026.19
2022-11-03T18:33:22.528Z,96018.78
2022-11-03T18:35:49.678Z,96009.59
2022-11-03T18:38:16.916Z,96015.41
2022-11-03T18:40:44.015Z,96008.72
2022-11-03T18:43:12.792Z,96009.09
2022-11-03T18:45:39.212Z,96010.59
2022-11-03T18:48:06.759Z,96000.59
2022-11-03T18:50:33.496Z,95997.41
2022-11-03T18:52:59.915Z,95986.72
2022-11-03T18:55:26.761Z,95982.56
2022-11-03T18:57:53.207Z,95970.75
2022-11-03T19:00:20.825Z,95971.56
2022-11-03T19:02:47.772Z,95964.00
2022-11-03T19:05:15.261Z,95954.78
2022-11-03T19:07:43.190Z,95958.84
2022-11-03T19:10:10.816Z,95955.63
2022-11-03T19:12:39.107Z,95939.59
2022-11-03T19:15:06.902Z,95936.38
2022-11-03T19:17:34.775Z,95930.81
2022-11-03T19:20:02.592Z,95938.16
2022-11-03T19:22:29.034Z,95927.84
2022-11-03T19:24:55.505Z,95927.53
2022-11-03T19:27:24.320Z,95923.31
2022-11-03T19:29:50.711Z,95916.16
2022-11-03T19:32:27.916Z,95917.81
2022-11-03T19:34:59.860Z,95911.16
2022-11-03T19:37:31.020Z,95910.78
2022-11-03T19:40:00.772Z,95916.34
2022-11-03T19:42:36.575Z,95907.09
2022-11-03T19:45:24.086Z,95909.13
2022-11-03T19:50:43.423Z,95909.84
2022-11-03T19:53:13.786Z,95894.53
2022-11-03T19:55:41.836Z,95877.78
2022-11-03T19:58:15.668Z,95869.03
2022-11-03T20:00:42.638Z,95863.91
2022-11-03T20:03:09.251Z,95873.56
2022-11-03T20:05:35.880Z,95875.28
2022-11-03T20:08:03.871Z,95863.91
2022-11-03T20:10:33.353Z,95867.56
2022-11-03T20:13:02.612Z,95860.28
2022-11-03T20:15:28.974Z,95851.94
2022-11-03T20:17:55.314Z,95845.44
2022-11-03T20:20:23.571Z,95851.28
2022-11-03T20:22:51.521Z,95840.97
2022-11-03T20:25:28.008Z,95836.16
2022-11-03T20:27:56.090Z,95829.09
2022-11-03T20:30:23.816Z,95827.59
2022-11-03T20:32:50.896Z,95824.91
2022-11-03T20:35:25.045Z,95822.88
2022-11-03T20:37:53.065Z,95826.16
2022-11-03T20:40:20.971Z,95823.78
2022-11-03T20:42:51.664Z,95809.72
2022-11-03T20:45:19.474Z,95812.97
2022-11-03T20:47:48.318Z,95807.53
2022-11-03T20:50:15.744Z,95814.91
2022-11-03T20:52:42.834Z,95809.78
2022-11-03T20:55:18.208Z,95811.63
2022-11-03T20:57:45.253Z,95812.03
2022-11-03T21:00:14.446Z,95814.66
2022-11-03T21:02:40.951Z,95820.25
2022-11-03T21:05:15.250Z,95810.91
2022-11-03T21:07:41.760Z,95803.25
2022-11-03T21:10:08.265Z,95801.69
2022-11-03T21:12:34.671Z,95798.94
2022-11-03T21:15:19.704Z,95802.88
2022-11-03T21:18:06.315Z,95787.34
2022-11-03T21:20:32.997Z,95791.22
2022-11-03T21:23:00.029Z,95806.75
2022-11-03T21:25:26.370Z,95793.91
2022-11-03T21:27:53.857Z,95799.81
2022-11-03T21:30:20.724Z,95780.31
2022-11-03T21:32:48.032Z,95763.53
2022-11-03T21:35:16.026Z,95761.13
2022-11-03T21:37:42.775Z,95766.25
2022-11-03T21:40:10.216Z,95769.09
2022-11-03T21:42:55.380Z,95755.59
2022-11-03T21:45:21.812Z,95759.28
2022-11-03T21:48:13.175Z,95754.00
2022-11-03T21:50:40.684Z,95754.22
2022-11-03T21:53:08.557Z,95756.16
2022-11-03T21:55:35.250Z,95751.47
2022-11-03T21:58:01.953Z,95745.66
2022-11-03T22:00:28.796Z,95750.53
2022-11-03T22:02:55.551Z,95750.47
2022-11-03T22:05:21.955Z,95754.00
2022-11-03T22:07:48.407Z,95742.28
2022-11-03T22:10:14.746Z,95743.56
2022-11-03T22:12:41.070Z,95745.13
2022-11-03T22:15:26.431Z,95736.69
2022-11-03T22:17:52.820Z,95741.31
2022-11-03T22:20:37.702Z,95726.84
2022-11-03T22:23:23.190Z,95719.47
2022-11-03T22:26:07.907Z,95712.84
2022-11-03T22:28:34.292Z,95702.34
2022-11-03T22:31:22.159Z,95708.22
2022-11-03T22:34:07.391Z,95698.13
2022-11-03T22:36:33.705Z,95687.78
2022-11-03T22:39:18.838Z,95684.78
2022-11-03T22:42:06.631Z,95676.72
2022-11-03T22:44:51.999Z,95674.09
2022-11-03T22:47:18.937Z,95680.84
2022-11-03T22:49:45.467Z,95686.38
2022-11-03T22:52:11.801Z,95687.13
2022-11-03T22:54:39.445Z,95684.78
2022-11-03T22:57:07.629Z,95673.44
2022-11-03T22:59:34.052Z,95679.84
2022-11-03T23:02:00.550Z,95675.47
2022-11-03T23:04:26.988Z,95677.09
2022-11-03T23:06:53.299Z,95667.78
2022-11-03T23:09:19.798Z,95667.28
2022-11-03T23:11:46.241Z,95670.13
2022-11-03T23:14:12.668Z,95675.22
2022-11-03T23:16:40.330Z,95680.38
2022-11-03T23:19:26.376Z,95684.44
2022-11-03T23:21:53.281Z,95689.63
2022-11-03T23:24:42.213Z,95692.28
2022-11-03T23:27:11.517Z,95693.72
2022-11-03T23:29:38.433Z,95683.50
2022-11-03T23:32:04.984Z,95687.00
2022-11-03T23:34:31.379Z,95679.84
2022-11-03T23:36:58.331Z,95685.34
2022-11-03T23:39:24.615Z,95703.59
2022-11-03T23:41:51.350Z,95714.41
2022-11-03T23:44:17.827Z,95720.84
2022-11-03T23:47:03.025Z,95731.97
2022-11-03T23:49:29.741Z,95731.75
2022-11-03T23:51:56.172Z,95727.81
2022-11-03T23:54:22.739Z,95725.41
2022-11-03T23:57:08.345Z,95730.47
2022-11-03T23:59:34.963Z,95720.66
